createdAt,value
2017-12-11T00:00:26.698Z,973.32
2017-12-11T00:01:07.214Z,973.28
2017-12-11T00:01:47.786Z,973.32
2017-12-11T00:02:28.282Z,973.33
2017-12-11T00:03:08.845Z,973.31
2017-12-11T00:03:49.409Z,973.36
2017-12-11T00:04:29.978Z,973.37
2017-12-11T00:05:10.541Z,973.4
2017-12-11T00:05:51.043Z,973.36
2017-12-11T00:06:31.605Z,973.37
2017-12-11T00:07:12.096Z,973.27
2017-12-11T00:07:52.620Z,973.35
2017-12-11T00:08:33.179Z,973.29
2017-12-11T00:09:13.718Z,973.29
2017-12-11T00:09:54.258Z,973.21
2017-12-11T00:10:34.861Z,973.24
2017-12-11T00:11:15.358Z,973.28
2017-12-11T00:11:55.917Z,973.2
2017-12-11T00:12:36.417Z,973.28
2017-12-11T00:13:16.989Z,973.28
2017-12-11T00:13:57.583Z,973.26
2017-12-11T00:14:38.087Z,973.25
2017-12-11T00:15:18.613Z,973.33
2017-12-11T00:15:59.179Z,973.3
2017-12-11T00:16:39.715Z,973.26
2017-12-11T00:17:20.253Z,973.24
2017-12-11T00:18:00.757Z,973.25
2017-12-11T00:18:41.292Z,973.21
2017-12-11T00:19:21.838Z,973.3
2017-12-11T00:20:02.362Z,973.27
2017-12-11T00:20:42.933Z,973.25
2017-12-11T00:21:23.511Z,973.22
2017-12-11T00:22:04.007Z,973.24
2017-12-11T00:22:44.574Z,973.29
2017-12-11T00:23:25.108Z,973.21
2017-12-11T00:24:05.657Z,973.25
2017-12-11T00:24:46.202Z,973.25
2017-12-11T00:25:26.736Z,973.22
2017-12-11T00:26:07.301Z,973.24
2017-12-11T00:26:47.825Z,973.24
2017-12-11T00:27:28.319Z,973.25
2017-12-11T00:28:08.852Z,973.21
2017-12-11T00:28:49.386Z,973.19
2017-12-11T00:29:29.961Z,973.16
2017-12-11T00:30:10.473Z,973.14
2017-12-11T00:30:51.082Z,973.07
2017-12-11T00:31:31.728Z,973.06
2017-12-11T00:32:12.271Z,973.07
2017-12-11T00:32:52.773Z,973.09
2017-12-11T00:33:33.333Z,973.07
2017-12-11T00:34:13.867Z,973.08
2017-12-11T00:34:54.368Z,973.13
2017-12-11T00:35:34.932Z,973.18
2017-12-11T00:36:15.462Z,973.15
2017-12-11T00:36:55.955Z,973.13
2017-12-11T00:37:36.510Z,973.16
2017-12-11T00:38:17.051Z,973.16
2017-12-11T00:38:57.607Z,973.14
2017-12-11T00:39:38.169Z,973.08
2017-12-11T00:40:18.665Z,973.12
2017-12-11T00:40:59.227Z,973.11
2017-12-11T00:41:39.812Z,973.18
2017-12-11T00:42:20.314Z,973.15
2017-12-11T00:43:00.890Z,973.12
2017-12-11T00:43:41.432Z,973.1
2017-12-11T00:44:22.000Z,973.11
2017-12-11T00:45:02.504Z,973.14
2017-12-11T00:45:43.077Z,973.14
2017-12-11T00:46:23.593Z,973.09
2017-12-11T00:47:04.141Z,973.09
2017-12-11T00:47:44.682Z,973.12
2017-12-11T00:48:25.230Z,973.13
2017-12-11T00:49:05.733Z,973.08
2017-12-11T00:49:46.259Z,973.06
2017-12-11T00:50:26.804Z,972.97
2017-12-11T00:51:07.355Z,973
2017-12-11T00:51:47.893Z,972.98
2017-12-11T00:52:28.482Z,972.98
2017-12-11T00:53:09.001Z,973
2017-12-11T00:53:49.574Z,972.97
2017-12-11T00:54:30.137Z,972.98
2017-12-11T00:55:10.685Z,972.92
2017-12-11T00:55:51.203Z,972.97
2017-12-11T00:56:31.746Z,972.99
2017-12-11T00:57:12.339Z,973
2017-12-11T00:57:52.854Z,973.03
2017-12-11T00:58:33.412Z,972.97
2017-12-11T00:59:13.922Z,973.02
2017-12-11T00:59:54.447Z,973.07
2017-12-11T01:00:34.943Z,973.07
2017-12-11T01:01:15.537Z,973.07
2017-12-11T01:01:56.089Z,973.04
2017-12-11T01:02:36.593Z,973.08
2017-12-11T01:03:17.156Z,973.06
2017-12-11T01:03:57.663Z,973.08
2017-12-11T01:04:38.213Z,973.1
2017-12-11T01:05:18.787Z,973.15
2017-12-11T01:05:59.336Z,973.07
2017-12-11T01:06:39.871Z,973.15
2017-12-11T01:07:20.426Z,973.1
2017-12-11T01:08:01.031Z,973.15
2017-12-11T01:08:41.552Z,973.13
2017-12-11T01:09:22.119Z,972.98
2017-12-11T01:10:02.656Z,973.04
2017-12-11T01:10:43.150Z,972.97
2017-12-11T01:11:23.682Z,973
2017-12-11T01:12:04.241Z,972.98
2017-12-11T01:12:44.791Z,972.98
2017-12-11T01:13:25.345Z,972.96
2017-12-11T01:14:05.881Z,972.95
2017-12-11T01:14:46.458Z,972.95
2017-12-11T01:15:26.998Z,972.88
2017-12-11T01:16:07.572Z,972.91
2017-12-11T01:16:48.096Z,972.84
2017-12-11T01:17:28.668Z,972.82
2017-12-11T01:18:09.185Z,972.79
2017-12-11T01:18:49.672Z,972.84
2017-12-11T01:19:30.226Z,972.85
2017-12-11T01:20:10.782Z,972.8
2017-12-11T01:20:51.338Z,972.79
2017-12-11T01:21:31.911Z,972.83
2017-12-11T01:22:12.460Z,972.85
2017-12-11T01:22:53.030Z,972.83
2017-12-11T01:23:33.586Z,972.9
2017-12-11T01:24:14.106Z,972.91
2017-12-11T01:24:54.611Z,972.96
2017-12-11T01:25:35.163Z,972.96
2017-12-11T01:26:15.737Z,973.01
2017-12-11T01:26:56.220Z,972.94
2017-12-11T01:27:36.777Z,972.95
2017-12-11T01:28:17.339Z,972.96
2017-12-11T01:28:57.881Z,972.88
2017-12-11T01:29:38.414Z,972.84
2017-12-11T01:30:18.921Z,972.82
2017-12-11T01:30:59.466Z,972.82
2017-12-11T01:31:40.039Z,972.78
2017-12-11T01:32:20.559Z,972.79
2017-12-11T01:33:01.102Z,972.78
2017-12-11T01:33:41.630Z,972.76
2017-12-11T01:34:22.155Z,972.74
2017-12-11T01:35:02.680Z,972.72
2017-12-11T01:35:43.206Z,972.74
2017-12-11T01:36:23.799Z,972.75
2017-12-11T01:37:04.367Z,972.76
2017-12-11T01:37:44.890Z,972.76
2017-12-11T01:38:25.409Z,972.76
2017-12-11T01:39:05.975Z,972.78
2017-12-11T01:39:46.525Z,972.82
2017-12-11T01:40:27.055Z,972.8
2017-12-11T01:41:07.619Z,972.85
2017-12-11T01:41:48.147Z,972.82
2017-12-11T01:42:28.688Z,972.81
2017-12-11T01:43:09.272Z,972.86
2017-12-11T01:43:49.806Z,972.8
2017-12-11T01:44:30.313Z,972.8
2017-12-11T01:45:10.849Z,972.82
2017-12-11T01:45:51.356Z,972.83
2017-12-11T01:46:31.911Z,972.76
2017-12-11T01:47:12.428Z,972.84
2017-12-11T01:47:52.976Z,972.88
2017-12-11T01:48:33.534Z,972.81
2017-12-11T01:49:14.086Z,972.82
2017-12-11T01:49:54.658Z,972.82
2017-12-11T01:50:35.216Z,972.8
2017-12-11T01:51:15.722Z,972.78
2017-12-11T01:51:56.264Z,972.81
2017-12-11T01:52:36.874Z,972.86
2017-12-11T01:53:17.370Z,972.88
2017-12-11T01:53:57.922Z,972.91
2017-12-11T01:54:38.521Z,972.83
2017-12-11T01:55:19.032Z,972.94
2017-12-11T01:55:59.547Z,972.86
2017-12-11T01:56:40.198Z,972.86
2017-12-11T01:57:20.641Z,972.89
2017-12-11T01:58:01.167Z,972.95
2017-12-11T01:58:41.695Z,972.96
2017-12-11T01:59:22.244Z,972.96
2017-12-11T02:00:02.771Z,972.96
2017-12-11T02:00:43.404Z,972.99
2017-12-11T02:01:23.875Z,973
2017-12-11T02:02:04.425Z,973.06
2017-12-11T02:02:44.992Z,973.03
2017-12-11T02:03:25.523Z,973.04
2017-12-11T02:04:06.056Z,973.1
2017-12-11T02:04:46.568Z,973.09
2017-12-11T02:05:27.106Z,973.07
2017-12-11T02:06:07.646Z,973.04
2017-12-11T02:06:48.207Z,973.04
2017-12-11T02:07:28.722Z,973.05
2017-12-11T02:08:09.278Z,973.06
2017-12-11T02:08:49.802Z,973.02
2017-12-11T02:09:30.359Z,973.08
2017-12-11T02:10:10.911Z,973.11
2017-12-11T02:10:51.460Z,973.09
2017-12-11T02:11:32.025Z,973.07
2017-12-11T02:12:12.547Z,973.05
2017-12-11T02:12:53.071Z,973.08
2017-12-11T02:13:33.623Z,973.11
2017-12-11T02:14:14.196Z,973.1
2017-12-11T02:14:54.723Z,973.11
2017-12-11T02:15:35.269Z,973.14
2017-12-11T02:16:15.884Z,973.15
2017-12-11T02:16:56.404Z,973.11
2017-12-11T02:17:36.983Z,973.15
2017-12-11T02:18:17.482Z,973.09
2017-12-11T02:18:58.032Z,973.14
2017-12-11T02:19:38.554Z,973.14
2017-12-11T02:20:19.049Z,973.11
2017-12-11T02:20:59.619Z,973.16
2017-12-11T02:21:40.114Z,973.17
2017-12-11T02:22:20.685Z,973.19
2017-12-11T02:23:01.207Z,973.25
2017-12-11T02:23:41.764Z,973.29
2017-12-11T02:24:22.286Z,973.29
2017-12-11T02:25:02.831Z,973.33
2017-12-11T02:25:43.362Z,973.34
2017-12-11T02:26:23.854Z,973.3
2017-12-11T02:27:04.406Z,973.36
2017-12-11T02:27:44.891Z,973.37
2017-12-11T02:28:25.435Z,973.3
2017-12-11T02:29:06.003Z,973.3
2017-12-11T02:29:46.522Z,973.33
2017-12-11T02:30:27.070Z,973.32
2017-12-11T02:31:07.622Z,973.29
2017-12-11T02:31:48.211Z,973.34
2017-12-11T02:32:28.761Z,973.31
2017-12-11T02:33:09.329Z,973.31
2017-12-11T02:33:49.829Z,973.21
2017-12-11T02:34:30.356Z,973.25
2017-12-11T02:35:10.926Z,973.23
2017-12-11T02:35:51.509Z,973.19
2017-12-11T02:36:32.011Z,973.16
2017-12-11T02:37:12.533Z,973.13
2017-12-11T02:37:53.048Z,973.13
2017-12-11T02:38:33.594Z,973.15
2017-12-11T02:39:14.160Z,973.12
2017-12-11T02:39:54.684Z,973.13
2017-12-11T02:40:35.232Z,973.07
2017-12-11T02:41:15.761Z,973.14
2017-12-11T02:41:56.333Z,973.14
2017-12-11T02:42:36.844Z,973.07
2017-12-11T02:43:17.405Z,973.12
2017-12-11T02:43:57.941Z,973.08
2017-12-11T02:44:38.529Z,973.07
2017-12-11T02:45:19.017Z,973.11
2017-12-11T02:45:59.569Z,973.12
2017-12-11T02:46:40.106Z,973.14
2017-12-11T02:47:20.647Z,973.16
2017-12-11T02:48:01.237Z,973.16
2017-12-11T02:48:41.739Z,973.19
2017-12-11T02:49:22.311Z,973.17
2017-12-11T02:50:02.852Z,973.16
2017-12-11T02:50:43.406Z,973.2
2017-12-11T02:51:23.949Z,973.2
2017-12-11T02:52:04.490Z,973.21
2017-12-11T02:52:45.099Z,973.2
2017-12-11T02:53:25.561Z,973.19
2017-12-11T02:54:06.111Z,973.22
2017-12-11T02:54:46.683Z,973.2
2017-12-11T02:55:27.330Z,973.23
2017-12-11T02:56:07.893Z,973.19
2017-12-11T02:56:48.468Z,973.17
2017-12-11T02:57:28.992Z,973.14
2017-12-11T02:58:09.546Z,973.07
2017-12-11T02:58:50.062Z,973.11
2017-12-11T02:59:30.618Z,973.16
2017-12-11T03:00:11.149Z,973.11
2017-12-11T03:00:51.722Z,973.07
2017-12-11T03:01:32.250Z,973.08
2017-12-11T03:02:12.802Z,973.07
2017-12-11T03:02:53.362Z,973.08
2017-12-11T03:03:33.938Z,973.08
2017-12-11T03:04:14.491Z,973.08
2017-12-11T03:04:55.053Z,973.1
2017-12-11T03:05:35.562Z,973.13
2017-12-11T03:06:16.138Z,973.15
2017-12-11T03:06:56.662Z,973.12
2017-12-11T03:07:37.153Z,973.15
2017-12-11T03:08:17.700Z,973.12
2017-12-11T03:08:58.259Z,973.15
2017-12-11T03:09:38.793Z,973.15
2017-12-11T03:10:19.335Z,973.18
2017-12-11T03:10:59.837Z,973.18
2017-12-11T03:11:40.356Z,973.21
2017-12-11T03:12:20.948Z,973.2
2017-12-11T03:13:01.428Z,973.17
2017-12-11T03:13:41.955Z,973.17
2017-12-11T03:14:22.445Z,973.22
2017-12-11T03:15:02.973Z,973.19
2017-12-11T03:15:43.528Z,973.23
2017-12-11T03:16:24.056Z,973.19
2017-12-11T03:17:04.593Z,973.18
2017-12-11T03:17:45.168Z,973.17
2017-12-11T03:18:25.709Z,973.16
2017-12-11T03:19:06.235Z,973.14
2017-12-11T03:19:46.803Z,973.14
2017-12-11T03:20:27.321Z,973.16
2017-12-11T03:21:07.884Z,973.15
2017-12-11T03:21:48.432Z,973.11
2017-12-11T03:22:28.925Z,973.13
2017-12-11T03:23:09.451Z,973.08
2017-12-11T03:23:49.990Z,973.12
2017-12-11T03:24:30.535Z,973.11
2017-12-11T03:25:11.083Z,973.16
2017-12-11T03:25:51.593Z,973.12
2017-12-11T03:26:32.134Z,973.13
2017-12-11T03:27:12.657Z,973.07
2017-12-11T03:27:53.209Z,973.07
2017-12-11T03:28:33.740Z,973.11
2017-12-11T03:29:14.314Z,973.08
2017-12-11T03:29:54.857Z,973.11
2017-12-11T03:30:35.420Z,973.05
2017-12-11T03:31:15.975Z,973.01
2017-12-11T03:31:56.439Z,973.02
2017-12-11T03:32:36.970Z,973
2017-12-11T03:33:17.531Z,973
2017-12-11T03:33:58.057Z,973
2017-12-11T03:34:38.613Z,973.01
2017-12-11T03:35:19.144Z,973.03
2017-12-11T03:35:59.666Z,973.02
2017-12-11T03:36:40.234Z,973.01
2017-12-11T03:37:20.761Z,973.02
2017-12-11T03:38:01.302Z,973.02
2017-12-11T03:38:41.818Z,973.03
2017-12-11T03:39:22.341Z,973.01
2017-12-11T03:40:02.865Z,973.04
2017-12-11T03:40:43.474Z,973.01
2017-12-11T03:41:23.997Z,973
2017-12-11T03:42:04.539Z,972.93
2017-12-11T03:42:45.027Z,972.95
2017-12-11T03:43:25.621Z,972.96
2017-12-11T03:44:06.132Z,972.9
2017-12-11T03:44:46.642Z,972.92
2017-12-11T03:45:27.196Z,972.91
2017-12-11T03:46:07.721Z,972.91
2017-12-11T03:46:48.255Z,972.87
2017-12-11T03:47:28.810Z,972.89
2017-12-11T03:48:09.324Z,972.84
2017-12-11T03:48:49.886Z,972.87
2017-12-11T03:49:30.408Z,972.82
2017-12-11T03:50:10.889Z,972.8
2017-12-11T03:50:51.428Z,972.82
2017-12-11T03:51:31.956Z,972.79
2017-12-11T03:52:12.496Z,972.79
2017-12-11T03:52:53.035Z,972.69
2017-12-11T03:53:33.537Z,972.74
2017-12-11T03:54:14.049Z,972.69
2017-12-11T03:54:54.624Z,972.65
2017-12-11T03:55:35.162Z,972.65
2017-12-11T03:56:15.725Z,972.53
2017-12-11T03:56:56.228Z,972.54
2017-12-11T03:57:36.767Z,972.57
2017-12-11T03:58:17.304Z,972.53
2017-12-11T03:58:57.887Z,972.53
2017-12-11T03:59:38.399Z,972.47
2017-12-11T04:00:18.922Z,972.47
2017-12-11T04:00:59.456Z,972.46
2017-12-11T04:01:39.972Z,972.45
2017-12-11T04:02:20.555Z,972.38
2017-12-11T04:03:01.098Z,972.41
2017-12-11T04:03:41.635Z,972.37
2017-12-11T04:04:22.192Z,972.33
2017-12-11T04:05:02.721Z,972.32
2017-12-11T04:05:43.286Z,972.3
2017-12-11T04:06:23.807Z,972.26
2017-12-11T04:07:04.344Z,972.24
2017-12-11T04:07:44.866Z,972.21
2017-12-11T04:08:25.385Z,972.23
2017-12-11T04:09:06.018Z,972.2
2017-12-11T04:09:46.539Z,972.22
2017-12-11T04:10:27.080Z,972.23
2017-12-11T04:11:07.586Z,972.22
2017-12-11T04:11:48.125Z,972.17
2017-12-11T04:12:28.738Z,972.21
2017-12-11T04:13:09.230Z,972.2
2017-12-11T04:13:49.751Z,972.21
2017-12-11T04:14:30.257Z,972.2
2017-12-11T04:15:10.764Z,972.18
2017-12-11T04:15:51.325Z,972.18
2017-12-11T04:16:31.852Z,972.16
2017-12-11T04:17:12.362Z,972.22
2017-12-11T04:17:52.947Z,972.23
2017-12-11T04:18:33.423Z,972.22
2017-12-11T04:19:14.010Z,972.26
2017-12-11T04:19:54.513Z,972.24
2017-12-11T04:20:35.046Z,972.26
2017-12-11T04:21:15.612Z,972.17
2017-12-11T04:21:56.142Z,972.16
2017-12-11T04:22:36.760Z,972.18
2017-12-11T04:23:17.267Z,972.1
2017-12-11T04:23:57.778Z,972.11
2017-12-11T04:24:38.352Z,972.09
2017-12-11T04:25:18.876Z,972.1
2017-12-11T04:25:59.402Z,972.13
2017-12-11T04:26:39.937Z,972.1
2017-12-11T04:27:20.482Z,972.13
2017-12-11T04:28:00.964Z,972.11
2017-12-11T04:28:41.523Z,972.14
2017-12-11T04:29:22.089Z,972.13
2017-12-11T04:30:02.598Z,972.18
2017-12-11T04:30:43.171Z,972.17
2017-12-11T04:31:23.673Z,972.15
2017-12-11T04:32:04.224Z,972.17
2017-12-11T04:32:44.744Z,972.15
2017-12-11T04:33:25.323Z,972.11
2017-12-11T04:34:05.820Z,972.12
2017-12-11T04:34:46.351Z,972.1
2017-12-11T04:35:26.925Z,972.13
2017-12-11T04:36:07.461Z,972.14
2017-12-11T04:36:47.996Z,972.09
2017-12-11T04:37:28.568Z,972.11
2017-12-11T04:38:09.071Z,972.09
2017-12-11T04:38:49.588Z,972.09
2017-12-11T04:39:30.152Z,972.05
2017-12-11T04:40:10.701Z,972.06
2017-12-11T04:40:51.228Z,972.1
2017-12-11T04:41:31.808Z,972.03
2017-12-11T04:42:12.320Z,972.03
2017-12-11T04:42:52.866Z,971.94
2017-12-11T04:43:33.422Z,971.94
2017-12-11T04:44:13.931Z,971.89
2017-12-11T04:44:54.463Z,971.86
2017-12-11T04:45:35.025Z,971.84
2017-12-11T04:46:15.540Z,971.84
2017-12-11T04:46:56.080Z,971.8
2017-12-11T04:47:36.605Z,971.76
2017-12-11T04:48:17.176Z,971.76
2017-12-11T04:48:57.712Z,971.75
2017-12-11T04:49:38.252Z,971.73
2017-12-11T04:50:18.814Z,971.71
2017-12-11T04:50:59.324Z,971.68
2017-12-11T04:51:39.884Z,971.68
2017-12-11T04:52:20.385Z,971.67
2017-12-11T04:53:00.932Z,971.71
2017-12-11T04:53:41.465Z,971.7
2017-12-11T04:54:22.004Z,971.7
2017-12-11T04:55:02.543Z,971.63
2017-12-11T04:55:43.072Z,971.64
2017-12-11T04:56:23.617Z,971.59
2017-12-11T04:57:04.120Z,971.55
2017-12-11T04:57:44.653Z,971.56
2017-12-11T04:58:25.213Z,971.57
2017-12-11T04:59:05.727Z,971.56
2017-12-11T04:59:46.269Z,971.57
2017-12-11T05:00:26.818Z,971.6
2017-12-11T05:01:07.351Z,971.57
2017-12-11T05:01:47.878Z,971.57
2017-12-11T05:02:28.424Z,971.52
2017-12-11T05:03:08.944Z,971.55
2017-12-11T05:03:49.477Z,971.52
2017-12-11T05:04:30.035Z,971.5
2017-12-11T05:05:10.571Z,971.48
2017-12-11T05:05:51.095Z,971.37
2017-12-11T05:06:31.647Z,971.42
2017-12-11T05:07:12.185Z,971.43
2017-12-11T05:07:52.742Z,971.41
2017-12-11T05:08:33.326Z,971.43
2017-12-11T05:09:13.863Z,971.4
2017-12-11T05:09:54.392Z,971.38
2017-12-11T05:10:34.942Z,971.35
2017-12-11T05:11:15.487Z,971.33
2017-12-11T05:11:56.034Z,971.26
2017-12-11T05:12:36.571Z,971.24
2017-12-11T05:13:17.134Z,971.23
2017-12-11T05:13:57.627Z,971.26
2017-12-11T05:14:38.178Z,971.21
2017-12-11T05:15:18.840Z,971.18
2017-12-11T05:15:59.381Z,971.14
2017-12-11T05:16:39.943Z,971.16
2017-12-11T05:17:20.498Z,971.07
2017-12-11T05:18:01.015Z,971.04
2017-12-11T05:18:41.568Z,971
2017-12-11T05:19:22.086Z,971.01
2017-12-11T05:20:02.604Z,970.96
2017-12-11T05:20:43.148Z,970.94
2017-12-11T05:21:23.752Z,970.89
2017-12-11T05:22:04.238Z,970.89
2017-12-11T05:22:44.792Z,970.89
2017-12-11T05:23:25.369Z,970.86
2017-12-11T05:24:05.953Z,970.85
2017-12-11T05:24:46.508Z,970.78
2017-12-11T05:25:27.043Z,970.78
2017-12-11T05:26:07.534Z,970.72
2017-12-11T05:26:48.103Z,970.76
2017-12-11T05:27:28.618Z,970.73
2017-12-11T05:28:09.146Z,970.72
2017-12-11T05:28:49.704Z,970.65
2017-12-11T05:29:30.207Z,970.66
2017-12-11T05:30:10.744Z,970.67
2017-12-11T05:30:51.284Z,970.66
2017-12-11T05:31:31.804Z,970.6
2017-12-11T05:32:12.328Z,970.65
2017-12-11T05:32:52.847Z,970.56
2017-12-11T05:33:33.387Z,970.55
2017-12-11T05:34:13.955Z,970.53
2017-12-11T05:34:54.569Z,970.51
2017-12-11T05:35:35.075Z,970.54
2017-12-11T05:36:15.598Z,970.56
2017-12-11T05:36:56.102Z,970.66
2017-12-11T05:37:36.654Z,970.64
2017-12-11T05:38:17.181Z,970.57
2017-12-11T05:38:57.747Z,970.55
2017-12-11T05:39:38.258Z,970.53
2017-12-11T05:40:18.815Z,970.54
2017-12-11T05:40:59.365Z,970.57
2017-12-11T05:41:39.945Z,970.57
2017-12-11T05:42:20.433Z,970.59
2017-12-11T05:43:01.003Z,970.62
2017-12-11T05:43:41.546Z,970.6
2017-12-11T05:44:22.114Z,970.63
2017-12-11T05:45:02.608Z,970.66
2017-12-11T05:45:43.128Z,970.66
2017-12-11T05:46:23.674Z,970.74
2017-12-11T05:47:04.222Z,970.67
2017-12-11T05:47:44.787Z,970.59
2017-12-11T05:48:25.302Z,970.47
2017-12-11T05:49:05.870Z,970.46
2017-12-11T05:49:46.390Z,970.47
2017-12-11T05:50:26.863Z,970.47
2017-12-11T05:51:07.400Z,970.55
2017-12-11T05:51:47.978Z,970.51
2017-12-11T05:52:28.455Z,970.46
2017-12-11T05:53:08.992Z,970.41
2017-12-11T05:53:49.548Z,970.38
2017-12-11T05:54:30.047Z,970.41
2017-12-11T05:55:10.602Z,970.45
2017-12-11T05:55:51.120Z,970.45
2017-12-11T05:56:31.653Z,970.43
2017-12-11T05:57:12.235Z,970.35
2017-12-11T05:57:52.751Z,970.3
2017-12-11T05:58:33.291Z,970.32
2017-12-11T05:59:13.823Z,970.36
2017-12-11T05:59:54.354Z,970.43
2017-12-11T06:00:34.855Z,970.44
2017-12-11T06:01:15.404Z,970.52
2017-12-11T06:01:55.998Z,970.65
2017-12-11T06:02:36.539Z,970.62
2017-12-11T06:03:17.038Z,970.57
2017-12-11T06:03:57.567Z,970.57
2017-12-11T06:04:38.135Z,970.54
2017-12-11T06:05:18.648Z,970.53
2017-12-11T06:05:59.170Z,970.56
2017-12-11T06:06:39.694Z,970.58
2017-12-11T06:07:20.202Z,970.6
2017-12-11T06:08:00.751Z,970.65
2017-12-11T06:08:41.338Z,970.64
2017-12-11T06:09:21.821Z,970.63
2017-12-11T06:10:02.364Z,970.58
2017-12-11T06:10:42.896Z,970.6
2017-12-11T06:11:23.506Z,970.65
2017-12-11T06:12:03.983Z,970.56
2017-12-11T06:12:44.546Z,970.56
2017-12-11T06:13:25.032Z,970.47
2017-12-11T06:14:05.559Z,970.45
2017-12-11T06:14:46.082Z,970.45
2017-12-11T06:15:26.640Z,970.5
2017-12-11T06:16:07.206Z,970.5
2017-12-11T06:16:47.730Z,970.46
2017-12-11T06:17:28.271Z,970.4
2017-12-11T06:18:08.809Z,970.27
2017-12-11T06:18:49.332Z,970.27
2017-12-11T06:19:29.878Z,970.31
2017-12-11T06:20:10.467Z,970.37
2017-12-11T06:20:50.967Z,970.37
2017-12-11T06:21:31.492Z,970.28
2017-12-11T06:22:12.092Z,970.24
2017-12-11T06:22:52.615Z,970.14
2017-12-11T06:23:33.157Z,970.15
2017-12-11T06:24:13.688Z,970.15
2017-12-11T06:24:54.215Z,970.04
2017-12-11T06:25:34.759Z,970.04
2017-12-11T06:26:15.373Z,970.02
2017-12-11T06:26:55.917Z,970.13
2017-12-11T06:27:36.440Z,970.11
2017-12-11T06:28:17.277Z,970.11
2017-12-11T06:28:57.787Z,970.09
2017-12-11T06:29:38.378Z,970.02
2017-12-11T06:30:18.904Z,969.93
2017-12-11T06:30:59.505Z,969.97
2017-12-11T06:31:40.025Z,970
2017-12-11T06:32:20.620Z,970.11
2017-12-11T06:33:01.179Z,970.1
2017-12-11T06:33:41.753Z,970.06
2017-12-11T06:34:22.326Z,969.99
2017-12-11T06:35:02.991Z,969.91
2017-12-11T06:35:43.628Z,969.9
2017-12-11T06:36:24.077Z,969.94
2017-12-11T06:37:04.599Z,969.97
2017-12-11T06:37:45.231Z,970.01
2017-12-11T06:38:25.791Z,969.92
2017-12-11T06:39:06.284Z,969.95
2017-12-11T06:39:46.920Z,969.88
2017-12-11T06:40:27.638Z,969.88
2017-12-11T06:41:08.096Z,969.88
2017-12-11T06:41:48.613Z,969.95
2017-12-11T06:42:29.151Z,969.9
2017-12-11T06:43:09.721Z,969.83
2017-12-11T06:43:50.278Z,969.83
2017-12-11T06:44:30.763Z,969.84
2017-12-11T06:45:11.301Z,969.82
2017-12-11T06:45:51.790Z,969.87
2017-12-11T06:46:32.327Z,969.87
2017-12-11T06:47:12.925Z,969.88
2017-12-11T06:47:53.505Z,969.9
2017-12-11T06:48:34.040Z,969.88
2017-12-11T06:49:14.552Z,969.82
2017-12-11T06:49:55.081Z,969.85
2017-12-11T06:50:35.603Z,969.81
2017-12-11T06:51:16.167Z,969.82
2017-12-11T06:51:56.703Z,969.79
2017-12-11T06:52:37.228Z,969.71
2017-12-11T06:53:17.766Z,969.66
2017-12-11T06:53:58.274Z,969.58
2017-12-11T06:54:38.825Z,969.63
2017-12-11T06:55:19.356Z,969.65
2017-12-11T06:56:00.000Z,969.68
2017-12-11T06:56:40.511Z,969.69
2017-12-11T06:57:21.069Z,969.62
2017-12-11T06:58:01.577Z,969.58
2017-12-11T06:58:42.160Z,969.53
2017-12-11T06:59:22.801Z,969.4
2017-12-11T07:00:03.335Z,969.43
2017-12-11T07:00:44.033Z,969.43
2017-12-11T07:01:24.624Z,969.37
2017-12-11T07:02:05.139Z,969.39
2017-12-11T07:02:45.671Z,969.45
2017-12-11T07:03:26.371Z,969.41
2017-12-11T07:04:06.959Z,969.47
2017-12-11T07:04:47.462Z,969.45
2017-12-11T07:05:27.992Z,969.43
2017-12-11T07:06:08.619Z,969.42
2017-12-11T07:06:49.095Z,969.4
2017-12-11T07:07:29.870Z,969.42
2017-12-11T07:08:10.411Z,969.43
2017-12-11T07:08:50.945Z,969.38
2017-12-11T07:09:31.520Z,969.37
2017-12-11T07:10:12.048Z,969.37
2017-12-11T07:10:52.617Z,969.41
2017-12-11T07:11:33.159Z,969.45
2017-12-11T07:12:13.765Z,969.47
2017-12-11T07:12:54.345Z,969.44
2017-12-11T07:13:34.840Z,969.44
2017-12-11T07:14:15.408Z,969.45
2017-12-11T07:14:55.950Z,969.46
2017-12-11T07:15:36.505Z,969.5
2017-12-11T07:16:17.064Z,969.43
2017-12-11T07:16:57.660Z,969.44
2017-12-11T07:17:38.241Z,969.4
2017-12-11T07:18:18.772Z,969.45
2017-12-11T07:18:59.559Z,969.52
2017-12-11T07:19:40.101Z,969.55
2017-12-11T07:20:20.596Z,969.5
2017-12-11T07:21:01.130Z,969.56
2017-12-11T07:21:41.790Z,969.52
2017-12-11T07:22:22.236Z,969.53
2017-12-11T07:23:02.877Z,969.51
2017-12-11T07:23:43.520Z,969.51
2017-12-11T07:24:24.006Z,969.46
2017-12-11T07:25:04.531Z,969.41
2017-12-11T07:25:45.132Z,969.41
2017-12-11T07:26:25.658Z,969.4
2017-12-11T07:27:06.221Z,969.32
2017-12-11T07:27:46.863Z,969.33
2017-12-11T07:28:27.384Z,969.42
2017-12-11T07:29:07.923Z,969.46
2017-12-11T07:29:48.456Z,969.46
2017-12-11T07:30:29.011Z,969.4
2017-12-11T07:31:09.658Z,969.41
2017-12-11T07:31:50.137Z,969.46
2017-12-11T07:32:30.739Z,969.45
2017-12-11T07:33:11.212Z,969.47
2017-12-11T07:33:51.874Z,969.41
2017-12-11T07:34:32.505Z,969.4
2017-12-11T07:35:12.991Z,969.43
2017-12-11T07:35:53.533Z,969.38
2017-12-11T07:36:34.042Z,969.34
2017-12-11T07:37:14.705Z,969.28
2017-12-11T07:37:55.194Z,969.3
2017-12-11T07:38:35.753Z,969.32
2017-12-11T07:39:16.336Z,969.31
2017-12-11T07:39:56.826Z,969.33
2017-12-11T07:40:37.407Z,969.35
2017-12-11T07:41:17.990Z,969.37
2017-12-11T07:41:58.519Z,969.34
2017-12-11T07:42:39.064Z,969.31
2017-12-11T07:43:19.624Z,969.29
2017-12-11T07:44:00.281Z,969.34
2017-12-11T07:44:40.809Z,969.3
2017-12-11T07:45:21.395Z,969.3
2017-12-11T07:46:01.921Z,969.32
2017-12-11T07:46:42.442Z,969.25
2017-12-11T07:47:23.017Z,969.25
2017-12-11T07:48:03.551Z,969.2
2017-12-11T07:48:44.098Z,969.23
2017-12-11T07:49:24.651Z,969.21
2017-12-11T07:50:05.181Z,969.26
2017-12-11T07:50:45.726Z,969.29
2017-12-11T07:51:26.228Z,969.29
2017-12-11T07:52:06.773Z,969.31
2017-12-11T07:52:47.348Z,969.28
2017-12-11T07:53:27.886Z,969.28
2017-12-11T07:54:08.478Z,969.3
2017-12-11T07:54:49.055Z,969.35
2017-12-11T07:55:29.638Z,969.33
2017-12-11T07:56:10.168Z,969.32
2017-12-11T07:56:50.721Z,969.22
2017-12-11T07:57:31.280Z,969.2
2017-12-11T07:58:11.787Z,969.22
2017-12-11T07:58:52.331Z,969.24
2017-12-11T07:59:32.912Z,969.25
2017-12-11T08:00:13.501Z,969.2
2017-12-11T08:00:54.015Z,969.15
2017-12-11T08:01:34.613Z,969.13
2017-12-11T08:02:15.096Z,969.08
2017-12-11T08:02:55.683Z,969.02
2017-12-11T08:03:36.260Z,969.04
2017-12-11T08:04:16.901Z,969
2017-12-11T08:04:57.322Z,968.99
2017-12-11T08:05:37.886Z,968.89
2017-12-11T08:06:18.400Z,968.87
2017-12-11T08:06:58.929Z,968.85
2017-12-11T08:07:39.467Z,968.85
2017-12-11T08:08:20.005Z,968.81
2017-12-11T08:09:00.543Z,968.76
2017-12-11T08:09:41.114Z,968.77
2017-12-11T08:10:21.681Z,968.81
2017-12-11T08:11:02.216Z,968.71
2017-12-11T08:11:42.774Z,968.77
2017-12-11T08:12:23.281Z,968.76
2017-12-11T08:13:03.819Z,968.71
2017-12-11T08:13:44.630Z,968.71
2017-12-11T08:14:25.229Z,968.66
2017-12-11T08:15:05.747Z,968.64
2017-12-11T08:15:46.287Z,968.61
2017-12-11T08:16:26.816Z,968.62
2017-12-11T08:17:07.408Z,968.67
2017-12-11T08:17:47.996Z,968.67
2017-12-11T08:18:28.453Z,968.69
2017-12-11T08:19:09.059Z,968.7
2017-12-11T08:19:49.580Z,968.68
2017-12-11T08:20:30.083Z,968.73
2017-12-11T08:21:10.626Z,968.62
2017-12-11T08:21:51.174Z,968.67
2017-12-11T08:22:31.677Z,968.64
2017-12-11T08:23:12.300Z,968.68
2017-12-11T08:23:52.875Z,968.68
2017-12-11T08:24:33.369Z,968.76
2017-12-11T08:25:13.913Z,968.81
2017-12-11T08:25:54.479Z,968.86
2017-12-11T08:26:35.027Z,968.83
2017-12-11T08:27:15.590Z,968.9
2017-12-11T08:27:56.141Z,968.87